createdAt,value
2022-12-08T00:01:51.854Z,0.87
2022-12-08T00:04:19.891Z,0.89
2022-12-08T00:07:05.961Z,0.88
2022-12-08T00:09:38.957Z,0.88
2022-12-08T00:12:12.909Z,0.87
2022-12-08T00:14:42.941Z,0.88
2022-12-08T00:17:12.660Z,0.89
2022-12-08T00:19:41.283Z,0.91
2022-12-08T00:22:10.441Z,0.86
2022-12-08T00:24:39.947Z,0.86
2022-12-08T00:27:09.759Z,0.85
2022-12-08T00:29:38.533Z,0.82
2022-12-08T00:32:06.797Z,0.79
2022-12-08T00:34:34.942Z,0.75
2022-12-08T00:37:02.713Z,0.73
2022-12-08T00:39:30.397Z,0.68
2022-12-08T00:42:13.213Z,0.65
2022-12-08T00:44:42.566Z,0.62
2022-12-08T00:47:11.566Z,0.58
2022-12-08T00:49:39.309Z,0.56
2022-12-08T00:52:07.012Z,0.53
2022-12-08T00:54:34.778Z,0.52
2022-12-08T00:57:02.474Z,0.52
2022-12-08T00:59:30.140Z,0.52
2022-12-08T01:01:57.843Z,0.50
2022-12-08T01:04:25.868Z,0.51
2022-12-08T01:06:53.631Z,0.54
2022-12-08T01:09:21.434Z,0.53
2022-12-08T01:11:49.190Z,0.54
2022-12-08T01:14:17.032Z,0.57
2022-12-08T01:16:45.104Z,0.55
2022-12-08T01:19:14.924Z,0.54
2022-12-08T01:21:44.712Z,0.50
2022-12-08T01:24:13.554Z,0.51
2022-12-08T01:26:41.361Z,0.52
2022-12-08T01:29:10.391Z,0.50
2022-12-08T01:31:38.779Z,0.47
2022-12-08T01:34:08.418Z,0.45
2022-12-08T01:36:39.631Z,0.41
2022-12-08T01:39:12.716Z,0.41
2022-12-08T01:41:40.405Z,0.40
2022-12-08T01:44:11.532Z,0.38
2022-12-08T01:46:44.228Z,0.39
2022-12-08T01:49:31.058Z,0.37
2022-12-08T01:52:00.696Z,0.35
2022-12-08T01:54:33.734Z,0.31
2022-12-08T01:57:21.107Z,0.28
2022-12-08T01:59:56.479Z,0.24
2022-12-08T02:02:29.721Z,0.18
2022-12-08T02:04:57.545Z,0.14
2022-12-08T02:07:25.581Z,0.14
2022-12-08T02:09:54.229Z,0.15
2022-12-08T02:12:22.160Z,0.16
2022-12-08T02:14:49.944Z,0.20
2022-12-08T02:17:32.129Z,0.20
2022-12-08T02:20:37.939Z,0.21
2022-12-08T02:23:22.547Z,0.22
2022-12-08T02:26:09.247Z,0.19
2022-12-08T02:29:05.921Z,0.14
2022-12-08T02:31:55.576Z,0.12
2022-12-08T02:34:26.415Z,0.08
2022-12-08T02:37:02.928Z,0.03
2022-12-08T02:39:43.234Z,0.01
2022-12-08T02:42:21.027Z,-0.03
2022-12-08T02:44:55.826Z,-0.01
2022-12-08T02:47:26.312Z,0.01
2022-12-08T02:49:55.939Z,-0.01
2022-12-08T02:52:23.563Z,0.00
2022-12-08T02:54:58.579Z,0.00
2022-12-08T02:57:47.802Z,0.01
2022-12-08T03:00:19.069Z,-0.00
2022-12-08T03:03:14.454Z,0.03
2022-12-08T03:05:54.188Z,-0.02
2022-12-08T03:08:32.917Z,-0.05
2022-12-08T03:11:21.868Z,-0.08
2022-12-08T03:13:52.695Z,-0.12
2022-12-08T03:16:24.779Z,-0.13
2022-12-08T03:19:06.914Z,-0.12
2022-12-08T03:21:36.095Z,-0.14
2022-12-08T03:24:07.447Z,-0.14
2022-12-08T03:26:44.853Z,-0.10
2022-12-08T03:29:13.327Z,-0.12
2022-12-08T03:31:48.112Z,-0.12
2022-12-08T03:34:17.680Z,-0.10
2022-12-08T03:36:45.902Z,-0.10
2022-12-08T03:39:14.577Z,-0.07
2022-12-08T03:41:42.243Z,-0.08
2022-12-08T03:44:09.929Z,-0.12
2022-12-08T03:46:37.714Z,-0.14
2022-12-08T03:49:05.382Z,-0.15
2022-12-08T03:51:33.033Z,-0.16
2022-12-08T03:54:00.695Z,-0.14
2022-12-08T03:56:31.893Z,-0.11
2022-12-08T03:59:00.444Z,-0.09
2022-12-08T04:01:28.488Z,-0.08
2022-12-08T04:03:56.656Z,-0.05
2022-12-08T04:06:24.306Z,-0.04
2022-12-08T04:08:52.605Z,-0.01
2022-12-08T04:11:20.565Z,0.04
2022-12-08T04:13:48.656Z,0.07
2022-12-08T04:16:19.906Z,0.06
2022-12-08T04:18:47.820Z,0.03
2022-12-08T04:21:15.883Z,0.05
2022-12-08T04:23:43.962Z,-0.00
2022-12-08T04:26:12.509Z,-0.04
2022-12-08T04:28:40.164Z,-0.04
2022-12-08T04:31:07.886Z,-0.07
2022-12-08T04:33:35.737Z,-0.09
2022-12-08T04:36:05.318Z,-0.07
2022-12-08T04:38:33.185Z,-0.04
2022-12-08T04:41:01.682Z,-0.00
2022-12-08T04:43:29.536Z,0.06
2022-12-08T04:45:57.230Z,0.14
2022-12-08T04:48:26.229Z,0.22
2022-12-08T04:50:53.933Z,0.28
2022-12-08T04:53:21.727Z,0.32
2022-12-08T04:55:49.797Z,0.33
2022-12-08T04:58:19.712Z,0.32
2022-12-08T05:00:47.868Z,0.33
2022-12-08T05:03:16.274Z,0.30
2022-12-08T05:05:44.743Z,0.31
2022-12-08T05:08:12.723Z,0.31
2022-12-08T05:10:40.530Z,0.30
2022-12-08T05:13:08.234Z,0.30
2022-12-08T05:15:35.957Z,0.29
2022-12-08T05:18:06.336Z,0.31
2022-12-08T05:20:34.475Z,0.30
2022-12-08T05:23:02.131Z,0.30
2022-12-08T05:25:29.884Z,0.26
2022-12-08T05:28:17.551Z,0.25
2022-12-08T05:30:45.176Z,0.24
2022-12-08T05:33:12.997Z,0.22
2022-12-08T05:35:40.819Z,0.16
2022-12-08T05:38:09.451Z,0.14
2022-12-08T05:40:39.157Z,0.10
2022-12-08T05:43:07.448Z,0.05
2022-12-08T05:45:35.146Z,0.07
2022-12-08T05:48:02.999Z,0.06
2022-12-08T05:50:30.842Z,0.04
2022-12-08T05:52:58.493Z,0.03
2022-12-08T05:55:26.144Z,-0.00
2022-12-08T05:57:53.812Z,-0.05
2022-12-08T06:00:21.925Z,-0.10
2022-12-08T06:02:49.687Z,-0.17
2022-12-08T06:05:17.450Z,-0.19
2022-12-08T06:07:45.131Z,-0.24
2022-12-08T06:10:12.898Z,-0.26
2022-12-08T06:12:40.746Z,-0.25
2022-12-08T06:15:08.816Z,-0.25
2022-12-08T06:17:36.521Z,-0.22
2022-12-08T06:20:05.246Z,-0.22
2022-12-08T06:22:33.061Z,-0.22
2022-12-08T06:25:00.732Z,-0.22
2022-12-08T06:27:28.505Z,-0.25
2022-12-08T06:29:56.258Z,-0.28
2022-12-08T06:32:27.407Z,-0.28
2022-12-08T06:34:55.497Z,-0.33
2022-12-08T06:37:23.152Z,-0.35
2022-12-08T06:39:51.785Z,-0.37
2022-12-08T06:42:38.081Z,-0.38
2022-12-08T06:45:06.798Z,-0.35
2022-12-08T06:47:34.913Z,-0.31
2022-12-08T06:50:03.076Z,-0.25
2022-12-08T06:52:31.215Z,-0.20
2022-12-08T06:54:58.932Z,-0.18
2022-12-08T06:57:26.664Z,-0.17
2022-12-08T06:59:54.346Z,-0.15
2022-12-08T07:02:22.142Z,-0.16
2022-12-08T07:04:51.314Z,-0.18
2022-12-08T07:07:18.937Z,-0.20
2022-12-08T07:09:46.634Z,-0.26
2022-12-08T07:12:14.501Z,-0.27
2022-12-08T07:14:42.148Z,-0.29
2022-12-08T07:17:09.854Z,-0.28
2022-12-08T07:19:37.600Z,-0.23
2022-12-08T07:22:05.237Z,-0.21
2022-12-08T07:24:33.319Z,-0.20
2022-12-08T07:27:00.990Z,-0.19
2022-12-08T07:29:28.785Z,-0.18
2022-12-08T07:31:56.444Z,-0.20
2022-12-08T07:34:24.205Z,-0.20
2022-12-08T07:36:51.820Z,-0.20
2022-12-08T07:39:19.511Z,-0.20
2022-12-08T07:41:47.184Z,-0.21
2022-12-08T07:44:14.960Z,-0.18
2022-12-08T07:46:42.689Z,-0.12
2022-12-08T07:49:10.405Z,-0.04
2022-12-08T07:51:38.130Z,0.08
2022-12-08T07:54:05.869Z,0.18
2022-12-08T07:56:33.596Z,0.31
2022-12-08T07:59:02.869Z,0.50
2022-12-08T08:01:32.990Z,0.85
2022-12-08T08:04:04.476Z,1.26
2022-12-08T08:06:33.678Z,1.75
2022-12-08T08:09:01.345Z,2.19
2022-12-08T08:11:29.143Z,2.69
2022-12-08T08:13:57.914Z,3.11
2022-12-08T08:16:25.847Z,3.51
2022-12-08T08:18:54.157Z,3.87
2022-12-08T08:21:45.123Z,4.21
2022-12-08T08:24:09.996Z,4.51
2022-12-08T08:26:37.866Z,4.71
2022-12-08T08:29:05.560Z,4.92
2022-12-08T08:31:33.296Z,5.05
2022-12-08T08:34:05.953Z,5.21
2022-12-08T08:36:34.034Z,5.25
2022-12-08T08:39:02.111Z,5.31
2022-12-08T08:41:29.938Z,5.48
2022-12-08T08:43:57.649Z,5.54
2022-12-08T08:46:25.338Z,5.64
2022-12-08T08:48:53.070Z,5.67
2022-12-08T08:51:21.169Z,5.74
2022-12-08T08:53:48.923Z,5.87
2022-12-08T08:56:22.381Z,6.05
2022-12-08T08:58:51.587Z,6.30
2022-12-08T09:01:30.190Z,6.44
2022-12-08T09:03:58.228Z,6.53
2022-12-08T09:06:28.115Z,6.50
2022-12-08T09:08:56.342Z,6.51
2022-12-08T09:11:24.252Z,6.47
2022-12-08T09:13:53.464Z,6.45
2022-12-08T09:16:21.884Z,6.35
2022-12-08T09:18:50.320Z,6.06
2022-12-08T09:21:22.959Z,5.80
2022-12-08T09:23:52.788Z,5.51
2022-12-08T09:26:24.013Z,5.08
2022-12-08T09:28:53.185Z,4.84
2022-12-08T09:31:22.174Z,4.60
2022-12-08T09:33:52.988Z,4.31
2022-12-08T09:36:21.136Z,4.15
2022-12-08T09:38:50.275Z,4.07
2022-12-08T09:41:22.640Z,3.85
2022-12-08T09:44:21.364Z,3.61
2022-12-08T09:46:52.311Z,3.50
2022-12-08T09:49:28.199Z,3.41
2022-12-08T09:51:56.070Z,3.35
2022-12-08T09:54:34.343Z,3.30
2022-12-08T09:57:11.992Z,3.27
2022-12-08T09:59:41.363Z,3.16
2022-12-08T10:02:26.547Z,3.02
2022-12-08T10:04:56.426Z,2.93
2022-12-08T10:07:43.617Z,2.91
2022-12-08T10:10:33.329Z,2.82
2022-12-08T10:13:26.234Z,2.71
2022-12-08T10:16:29.873Z,2.65
2022-12-08T10:19:10.910Z,2.57
2022-12-08T10:21:40.639Z,2.51
2022-12-08T10:24:13.603Z,2.46
2022-12-08T10:26:41.279Z,2.35
2022-12-08T10:29:13.611Z,2.27
2022-12-08T10:31:42.263Z,2.26
2022-12-08T10:34:19.015Z,2.32
2022-12-08T10:36:58.242Z,2.48
2022-12-08T10:39:31.255Z,2.68
2022-12-08T10:42:22.571Z,2.81
2022-12-08T10:45:08.712Z,2.92
2022-12-08T10:47:41.559Z,3.04
2022-12-08T10:50:15.351Z,3.21
2022-12-08T10:52:43.023Z,3.37
2022-12-08T10:55:17.020Z,3.50
2022-12-08T10:57:45.493Z,3.60
2022-12-08T11:00:18.800Z,3.65
2022-12-08T11:02:57.351Z,3.68
2022-12-08T11:05:29.398Z,3.66
2022-12-08T11:07:57.787Z,3.62
2022-12-08T11:10:43.349Z,3.53
2022-12-08T11:13:22.716Z,3.37
2022-12-08T11:15:51.231Z,3.23
2022-12-08T11:18:22.896Z,3.09
2022-12-08T11:20:59.262Z,3.04
2022-12-08T11:23:29.109Z,2.96
2022-12-08T11:26:04.748Z,2.85
2022-12-08T11:28:32.455Z,2.76
2022-12-08T11:31:06.983Z,2.74
2022-12-08T11:33:34.854Z,2.72
2022-12-08T11:36:08.987Z,2.72
2022-12-08T11:38:42.293Z,2.66
2022-12-08T11:41:18.949Z,2.53
2022-12-08T11:43:58.783Z,2.46
2022-12-08T11:46:51.224Z,2.39
2022-12-08T11:49:20.605Z,2.33
2022-12-08T11:51:54.747Z,2.32
2022-12-08T11:54:34.653Z,2.34
2022-12-08T11:57:05.900Z,2.33
2022-12-08T11:59:41.886Z,2.34
2022-12-08T12:02:14.438Z,2.34
2022-12-08T12:04:49.336Z,2.33
2022-12-08T12:07:39.551Z,2.35
2022-12-08T12:10:35.120Z,2.35
2022-12-08T12:13:40.455Z,2.37
2022-12-08T12:16:21.547Z,2.36
2022-12-08T12:19:16.994Z,2.32
2022-12-08T12:21:50.563Z,2.34
2022-12-08T12:24:27.501Z,2.36
2022-12-08T12:27:08.038Z,2.33
2022-12-08T12:29:38.453Z,2.35
2022-12-08T12:32:10.122Z,2.37
2022-12-08T12:34:48.921Z,2.39
2022-12-08T12:37:21.519Z,2.42
2022-12-08T12:40:03.645Z,2.43
2022-12-08T12:42:40.363Z,2.43
2022-12-08T12:45:17.096Z,2.42
2022-12-08T12:47:56.181Z,2.44
2022-12-08T12:50:33.995Z,2.46
2022-12-08T12:53:10.660Z,2.47
2022-12-08T12:55:55.453Z,2.47
2022-12-08T12:58:29.350Z,2.49
2022-12-08T13:01:15.124Z,2.50
2022-12-08T13:03:47.376Z,2.53
2022-12-08T13:06:23.009Z,2.54
2022-12-08T13:08:53.185Z,2.52
2022-12-08T13:11:21.783Z,2.52
2022-12-08T13:14:04.578Z,2.51
2022-12-08T13:16:37.366Z,2.51
2022-12-08T13:19:12.812Z,2.51
2022-12-08T13:21:40.904Z,2.54
2022-12-08T13:24:17.264Z,2.59
2022-12-08T13:26:49.399Z,2.64
2022-12-08T13:29:25.686Z,2.71
2022-12-08T13:32:00.930Z,2.71
2022-12-08T13:34:45.273Z,2.67
2022-12-08T13:37:15.799Z,2.65
2022-12-08T13:39:51.022Z,2.64
2022-12-08T13:42:27.451Z,2.63
2022-12-08T13:45:48.575Z,2.65
2022-12-08T13:48:30.138Z,2.69
2022-12-08T13:57:35.863Z,2.53
2022-12-08T14:00:15.201Z,2.48
2022-12-08T14:02:48.347Z,2.45
2022-12-08T14:05:23.790Z,2.40
2022-12-08T14:07:57.752Z,2.39
2022-12-08T14:10:28.271Z,2.41
2022-12-08T14:13:00.574Z,2.42
2022-12-08T14:15:32.696Z,2.42
2022-12-08T14:18:05.927Z,2.41
2022-12-08T14:20:57.744Z,2.37
2022-12-08T14:23:23.296Z,2.34
2022-12-08T14:25:50.945Z,2.28
2022-12-08T14:28:18.680Z,2.24
2022-12-08T14:30:49.556Z,2.23
2022-12-08T14:33:17.501Z,2.21
2022-12-08T14:35:51.484Z,2.20
2022-12-08T14:38:21.769Z,2.20
2022-12-08T14:41:07.184Z,2.19
2022-12-08T14:43:34.991Z,2.18
2022-12-08T14:46:06.504Z,2.16
2022-12-08T14:48:34.160Z,2.16
2022-12-08T14:51:04.729Z,2.15
2022-12-08T14:53:40.721Z,2.15
2022-12-08T14:56:24.556Z,2.15
2022-12-08T14:59:04.241Z,2.15
2022-12-08T15:01:33.000Z,2.15
2022-12-08T15:04:28.556Z,2.12
2022-12-08T15:07:20.005Z,2.13
2022-12-08T15:09:50.142Z,2.15
2022-12-08T15:12:27.125Z,2.16
2022-12-08T15:14:56.973Z,2.15
2022-12-08T15:17:39.919Z,2.11
2022-12-08T15:20:33.221Z,2.10
2022-12-08T15:23:02.688Z,2.05
2022-12-08T15:25:30.443Z,2.02
2022-12-08T15:27:58.214Z,2.00
2022-12-08T15:30:29.731Z,1.98
2022-12-08T15:32:57.414Z,1.98
2022-12-08T15:35:25.071Z,1.96
2022-12-08T15:37:52.891Z,1.95
2022-12-08T15:40:22.973Z,1.94
2022-12-08T15:42:50.721Z,1.89
2022-12-08T15:45:18.991Z,1.87
2022-12-08T15:47:46.645Z,1.86
2022-12-08T15:50:16.729Z,1.82
2022-12-08T15:52:44.500Z,1.81
2022-12-08T15:55:19.612Z,1.81
2022-12-08T15:58:45.052Z,1.82
2022-12-08T16:00:55.653Z,1.83
2022-12-08T16:04:13.854Z,1.85
2022-12-08T16:09:13.740Z,1.94
2022-12-08T16:12:07.110Z,1.97
2022-12-08T16:17:25.684Z,2.08
2022-12-08T16:19:53.997Z,2.11
2022-12-08T16:22:52.901Z,2.17
2022-12-08T16:25:20.419Z,2.21
2022-12-08T16:28:01.215Z,2.27
2022-12-08T16:30:31.203Z,2.32
2022-12-08T16:32:58.865Z,2.36
2022-12-08T16:35:26.574Z,2.39
2022-12-08T16:37:54.256Z,2.42
2022-12-08T16:40:22.657Z,2.43
2022-12-08T16:42:50.559Z,2.45
2022-12-08T16:45:25.755Z,2.49
2022-12-08T16:47:56.022Z,2.50
2022-12-08T16:50:32.146Z,2.52
2022-12-08T16:53:02.454Z,2.55
2022-12-08T16:55:30.403Z,2.57
2022-12-08T16:57:58.637Z,2.59
2022-12-08T17:00:28.911Z,2.60
2022-12-08T17:02:58.550Z,2.59
2022-12-08T17:05:26.881Z,2.59
2022-12-08T17:07:55.405Z,2.60
2022-12-08T17:10:26.078Z,2.59
2022-12-08T17:12:54.642Z,2.61
2022-12-08T17:15:25.566Z,2.61
2022-12-08T17:17:53.710Z,2.63
2022-12-08T17:20:24.771Z,2.68
2022-12-08T17:22:58.257Z,2.74
2022-12-08T17:25:26.926Z,2.80
2022-12-08T17:27:56.245Z,2.84
2022-12-08T17:30:24.003Z,2.86
2022-12-08T17:32:52.844Z,2.87
2022-12-08T17:35:20.645Z,2.88
2022-12-08T17:37:48.378Z,2.88
2022-12-08T17:40:16.644Z,2.84
2022-12-08T17:42:44.661Z,2.80
2022-12-08T17:45:12.378Z,2.76
2022-12-08T17:47:39.986Z,2.71
2022-12-08T17:50:08.722Z,2.65
2022-12-08T17:52:36.705Z,2.64
2022-12-08T17:55:04.764Z,2.63
2022-12-08T18:00:36.151Z,2.68
2022-12-08T18:03:02.680Z,2.61
2022-12-08T18:05:30.469Z,2.59
2022-12-08T18:07:57.500Z,2.56
2022-12-08T18:10:23.850Z,2.52
2022-12-08T18:12:50.321Z,2.47
2022-12-08T18:15:18.678Z,2.46
2022-12-08T18:17:45.293Z,2.42
2022-12-08T18:20:12.651Z,2.39
2022-12-08T18:22:40.366Z,2.35
2022-12-08T18:25:07.372Z,2.37
2022-12-08T18:27:37.418Z,2.35
2022-12-08T18:30:11.532Z,2.35
2022-12-08T18:32:37.859Z,2.36
2022-12-08T18:35:04.448Z,2.35
2022-12-08T18:37:30.715Z,2.35
2022-12-08T18:39:57.115Z,2.31
2022-12-08T18:42:23.425Z,2.24
2022-12-08T18:45:06.037Z,2.17
2022-12-08T18:47:34.728Z,2.08
2022-12-08T18:50:01.396Z,1.99
2022-12-08T18:52:32.173Z,1.93
2022-12-08T18:55:07.658Z,1.89
2022-12-08T18:57:37.910Z,1.84
2022-12-08T19:00:09.857Z,1.81
2022-12-08T19:02:38.170Z,1.75
2022-12-08T19:05:06.093Z,1.70
2022-12-08T19:07:32.383Z,1.68
2022-12-08T19:10:00.540Z,1.64
2022-12-08T19:12:27.571Z,1.61
2022-12-08T19:14:54.030Z,1.58
2022-12-08T19:17:20.486Z,1.55
2022-12-08T19:19:46.953Z,1.51
2022-12-08T19:22:13.417Z,1.52
2022-12-08T19:24:39.685Z,1.51
2022-12-08T19:27:06.128Z,1.51
2022-12-08T19:29:32.389Z,1.50
2022-12-08T19:31:59.615Z,1.48
2022-12-08T19:34:26.069Z,1.47
2022-12-08T19:36:52.475Z,1.46
2022-12-08T19:39:41.144Z,1.47
2022-12-08T19:49:03.341Z,1.46
2022-12-08T19:51:31.069Z,1.44
2022-12-08T19:53:58.759Z,1.44
2022-12-08T19:56:26.575Z,1.43
2022-12-08T19:58:54.267Z,1.42
2022-12-08T20:01:21.989Z,1.38
2022-12-08T20:03:49.666Z,1.35
2022-12-08T20:06:18.173Z,1.34
2022-12-08T20:08:50.432Z,1.32
2022-12-08T20:11:18.484Z,1.31
2022-12-08T20:13:47.661Z,1.32
2022-12-08T20:16:16.365Z,1.33
2022-12-08T20:18:44.359Z,1.33
2022-12-08T20:21:12.473Z,1.36
2022-12-08T20:23:40.335Z,1.37
2022-12-08T20:26:09.953Z,1.38
2022-12-08T20:28:38.116Z,1.38
2022-12-08T20:31:06.147Z,1.35
2022-12-08T20:33:33.995Z,1.33
2022-12-08T20:36:04.600Z,1.29
2022-12-08T20:38:32.287Z,1.26
2022-12-08T20:41:00.035Z,1.23
2022-12-08T20:43:27.728Z,1.19
2022-12-08T20:45:55.407Z,1.17
2022-12-08T20:48:23.061Z,1.15
2022-12-08T20:50:52.065Z,1.16
2022-12-08T20:53:19.767Z,1.18
2022-12-08T20:55:47.518Z,1.20
2022-12-08T20:58:15.373Z,1.21
2022-12-08T21:00:43.491Z,1.22
2022-12-08T21:03:12.755Z,1.23
2022-12-08T21:05:41.188Z,1.21
2022-12-08T21:08:08.946Z,1.18
2022-12-08T21:10:42.194Z,1.14
2022-12-08T21:13:11.900Z,1.14
2022-12-08T21:15:39.681Z,1.10
2022-12-08T21:18:07.458Z,1.03
2022-12-08T21:20:35.267Z,0.99
2022-12-08T21:23:02.946Z,0.97
2022-12-08T21:25:30.898Z,0.97
2022-12-08T21:27:58.917Z,0.96
2022-12-08T21:30:26.921Z,0.94
2022-12-08T21:32:54.694Z,0.94
2022-12-08T21:35:22.496Z,0.92
2022-12-08T21:37:50.202Z,0.86
2022-12-08T21:40:18.303Z,0.79
2022-12-08T21:42:46.256Z,0.72
2022-12-08T21:45:16.728Z,0.72
2022-12-08T21:47:46.367Z,0.70
2022-12-08T21:50:14.982Z,0.72
2022-12-08T21:52:45.335Z,0.71
2022-12-08T21:55:14.688Z,0.72
2022-12-08T21:57:43.169Z,0.69
2022-12-08T22:00:15.355Z,0.65
2022-12-08T22:02:43.797Z,0.60
2022-12-08T22:05:11.625Z,0.56
2022-12-08T22:07:40.874Z,0.50
2022-12-08T22:10:10.642Z,0.47
2022-12-08T22:12:38.875Z,0.48
2022-12-08T22:15:08.728Z,0.50
2022-12-08T22:17:41.765Z,0.56
2022-12-08T22:20:12.869Z,0.57
2022-12-08T22:22:40.886Z,0.53
2022-12-08T22:25:11.957Z,0.51
2022-12-08T22:27:40.669Z,0.47
2022-12-08T22:30:09.670Z,0.40
2022-12-08T22:32:37.884Z,0.33
2022-12-08T22:35:05.983Z,0.29
2022-12-08T22:37:33.910Z,0.26
2022-12-08T22:40:01.747Z,0.21
2022-12-08T22:42:29.947Z,0.22
2022-12-08T22:44:57.726Z,0.27
2022-12-08T22:47:25.657Z,0.28
2022-12-08T22:49:53.481Z,0.31
2022-12-08T22:52:21.259Z,0.33
2022-12-08T22:54:49.168Z,0.34
2022-12-08T22:57:17.016Z,0.38
2022-12-08T22:59:44.788Z,0.37
2022-12-08T23:02:12.609Z,0.31
2022-12-08T23:04:40.518Z,0.27
2022-12-08T23:07:08.364Z,0.22
2022-12-08T23:09:36.017Z,0.22
2022-12-08T23:12:04.780Z,0.22
2022-12-08T23:14:32.443Z,0.20
2022-12-08T23:17:00.313Z,0.20
2022-12-08T23:19:28.305Z,0.18
2022-12-08T23:21:56.179Z,0.16
2022-12-08T23:24:24.091Z,0.14
2022-12-08T23:26:51.920Z,0.15
2022-12-08T23:29:19.668Z,0.17
2022-12-08T23:31:47.517Z,0.19
2022-12-08T23:34:15.400Z,0.21
2022-12-08T23:36:43.329Z,0.20
2022-12-08T23:39:11.795Z,0.18
2022-12-08T23:41:39.705Z,0.16
2022-12-08T23:44:09.115Z,0.16
2022-12-08T23:46:36.979Z,0.16
2022-12-08T23:49:04.903Z,0.14
2022-12-08T23:51:32.831Z,0.14
2022-12-08T23:54:00.794Z,0.14
2022-12-08T23:56:30.523Z,0.14
2022-12-08T23:59:00.630Z,0.16
